Time;durP1;ratioP1;P1;durP2;ratioP2;P2;SDS_P1;SDS_P2;PMS_P1;PMS_P2;Temp;Humidity;BMP_temperature;BMP_pressure;BME280_temperature;BME280_humidity;BME280_pressure;Samples;Min_cycle;Max_cycle;Signal;HPM_P1;HPM_P2
2023/04/08 00:01:35;;;;;;;1999.90;999.90;;;29.50;83.60;;;;;;5029514;28;20487;-72
2023/04/08 00:04:03;;;;;;;1999.90;999.90;;;29.60;83.60;;;;;;5034009;28;20046;-71
2023/04/08 00:06:30;;;;;;;1999.90;999.90;;;29.90;83.40;;;;;;5036306;28;20029;-70
2023/04/08 00:08:58;;;;;;;1999.90;999.90;;;29.30;81.50;;;;;;5033771;28;20099;-71
2023/04/08 00:11:25;;;;;;;1999.90;999.90;;;29.20;83.70;;;;;;5031378;28;20140;-70
2023/04/08 00:13:52;;;;;;;1999.90;999.90;;;29.10;82.60;;;;;;5039023;28;20387;-71
2023/04/08 00:16:19;;;;;;;1999.90;999.90;;;29.40;82.10;;;;;;5038138;28;20028;-69
2023/04/08 00:18:48;;;;;;;1999.90;999.90;;;29.60;82.00;;;;;;5037817;28;20028;-69
2023/04/08 00:21:16;;;;;;;1999.90;999.90;;;29.80;82.60;;;;;;5038080;28;20142;-70
2023/04/08 00:23:44;;;;;;;1999.90;999.90;;;29.90;80.60;;;;;;5033004;28;20037;-70
2023/04/08 00:26:11;;;;;;;1999.90;999.90;;;29.70;81.10;;;;;;5036917;28;20029;-70
2023/04/08 00:28:40;;;;;;;1999.90;999.90;;;29.80;81.90;;;;;;5034620;28;20041;-71
2023/04/08 00:31:07;;;;;;;1999.90;999.90;;;29.90;79.70;;;;;;5043222;28;20029;-72
2023/04/08 00:33:35;;;;;;;1999.90;999.90;;;29.70;79.10;;;;;;5046085;28;20033;-74
2023/04/08 00:36:02;;;;;;;1999.90;999.90;;;29.70;79.30;;;;;;5037040;28;20048;-72
2023/04/08 00:38:30;;;;;;;1999.90;999.90;;;29.80;80.50;;;;;;5036041;28;20029;-71
2023/04/08 00:40:59;;;;;;;1999.90;999.90;;;30.00;79.40;;;;;;5031229;28;20029;-71
2023/04/08 00:43:26;;;;;;;1999.90;999.90;;;29.90;79.50;;;;;;5022055;28;20476;-71
2023/04/08 00:45:54;;;;;;;1999.90;999.90;;;29.70;78.70;;;;;;5024423;28;20536;-71
2023/04/08 00:48:24;;;;;;;1999.90;999.90;;;29.70;80.20;;;;;;5034344;28;20090;-70
2023/04/08 00:50:52;;;;;;;1999.90;999.90;;;29.70;78.80;;;;;;5034246;28;20029;-72
2023/04/08 00:53:20;;;;;;;1999.90;999.90;;;29.80;79.30;;;;;;5029149;28;20028;-69
2023/04/08 00:55:47;;;;;;;1999.90;999.90;;;30.10;79.80;;;;;;5029728;28;20417;-71
2023/04/08 00:58:17;;;;;;;1999.90;999.90;;;30.40;79.60;;;;;;5025676;28;20060;-72
2023/04/08 01:00:52;;;;;;;1999.90;999.90;;;30.50;78.20;;;;;;5041413;28;20017;-73
2023/04/08 01:03:43;;;;;;;1999.90;999.90;;;30.30;77.80;;;;;;5031800;28;20488;-70
2023/04/08 01:06:26;;;;;;;1999.90;999.90;;;30.30;77.80;;;;;;5042346;28;20029;-74
2023/04/08 01:08:56;;;;;;;1999.90;999.90;;;30.20;77.70;;;;;;5041598;28;20022;-73
2023/04/08 01:11:25;;;;;;;1999.90;999.90;;;30.30;79.40;;;;;;5037566;28;20026;-74
2023/04/08 01:13:55;;;;;;;1999.90;999.90;;;30.60;78.20;;;;;;5036023;28;20095;-74
2023/04/08 01:16:25;;;;;;;1999.90;999.90;;;30.10;78.90;;;;;;5036021;28;20061;-74
2023/04/08 01:18:54;;;;;;;1999.90;999.90;;;29.30;79.00;;;;;;5037380;28;20037;-74
2023/04/08 01:21:23;;;;;;;1999.90;999.90;;;29.20;80.50;;;;;;5037244;28;20140;-73
2023/04/08 01:24:01;;;;;;;1999.90;999.90;;;29.50;79.60;;;;;;5038817;28;20033;-74
2023/04/08 01:26:30;;;;;;;1999.90;999.90;;;29.50;79.40;;;;;;5038525;28;20035;-72
2023/04/08 01:29:01;;;;;;;1999.90;999.90;;;29.60;78.90;;;;;;5038752;28;20483;-74
2023/04/08 01:31:30;;;;;;;1999.90;999.90;;;28.70;79.20;;;;;;5036235;28;20048;-74
2023/04/08 01:34:00;;;;;;;1999.90;999.90;;;28.20;79.30;;;;;;5037361;28;20682;-69
2023/04/08 01:36:31;;;;;;;1999.90;999.90;;;27.60;81.20;;;;;;5035707;28;20065;-72
2023/04/08 01:39:02;;;;;;;1999.90;999.90;;;28.10;83.20;;;;;;5038608;28;20032;-71
2023/04/08 01:41:31;;;;;;;1999.90;999.90;;;28.70;81.30;;;;;;5039200;28;20025;-70
2023/04/08 01:43:59;;;;;;;1999.90;999.90;;;29.10;81.20;;;;;;5037171;28;20055;-71
2023/04/08 01:46:28;;;;;;;1999.90;999.90;;;29.50;81.30;;;;;;5043559;28;20047;-70
2023/04/08 01:48:57;;;;;;;1999.90;999.90;;;29.80;80.50;;;;;;5035012;28;20091;-71
2023/04/08 01:51:25;;;;;;;1999.90;999.90;;;29.90;79.80;;;;;;5037914;28;20029;-71
2023/04/08 01:53:53;;;;;;;1999.90;999.90;;;29.70;77.80;;;;;;5037222;28;20086;-72
2023/04/08 01:56:22;;;;;;;1999.90;999.90;;;29.30;78.60;;;;;;5039587;28;20033;-74
2023/04/08 01:58:53;;;;;;;1999.90;999.90;;;29.20;79.80;;;;;;5032675;28;22215;-70
2023/04/08 02:01:23;;;;;;;1999.90;999.90;;;29.30;81.00;;;;;;5033573;28;20156;-72
2023/04/08 02:03:55;;;;;;;1999.90;999.90;;;29.40;79.70;;;;;;5033774;28;20040;-71
2023/04/08 02:06:23;;;;;;;1999.90;999.90;;;29.40;78.20;;;;;;5025845;28;20488;-71
2023/04/08 02:08:50;;;;;;;1999.90;999.90;;;29.40;81.90;;;;;;5032885;28;20049;-70
2023/04/08 02:11:17;;;;;;;1999.90;999.90;;;29.40;78.70;;;;;;5031648;28;20025;-74
2023/04/08 02:13:48;;;;;;;1999.90;999.90;;;29.50;79.50;;;;;;5034088;28;20236;-72
2023/04/08 02:16:30;;;;;;;1999.90;999.90;;;29.70;80.10;;;;;;5032725;28;20034;-72
2023/04/08 02:19:40;;;;;;;1999.90;999.90;;;29.60;77.90;;;;;;5040804;28;20309;-71
2023/04/08 02:22:17;;;;;;;1999.90;999.90;;;29.40;78.30;;;;;;5029153;28;20046;-71
2023/04/08 02:24:45;;;;;;;1999.90;999.90;;;28.70;78.60;;;;;;5034233;28;20035;-71
2023/04/08 02:27:13;;;;;;;1999.90;999.90;;;28.70;80.20;;;;;;5038145;28;20021;-72
2023/04/08 02:29:41;;;;;;;1999.90;999.90;;;28.60;77.60;;;;;;5038386;28;20041;-70
2023/04/08 02:32:11;;;;;;;1999.90;999.90;;;28.60;79.50;;;;;;5035153;28;20021;-70
2023/04/08 02:34:41;;;;;;;1999.90;999.90;;;28.70;80.20;;;;;;5036229;28;20034;-72
2023/04/08 02:37:09;;;;;;;1999.90;999.90;;;29.00;81.90;;;;;;5036252;28;20116;-73
2023/04/08 02:39:36;;;;;;;1999.90;999.90;;;29.30;79.50;;;;;;5036882;28;20029;-73
2023/04/08 02:42:05;;;;;;;1999.90;999.90;;;29.30;78.90;;;;;;5036345;28;20037;-73
2023/04/08 02:44:32;;;;;;;1999.90;999.90;;;29.20;77.90;;;;;;5038790;28;20116;-71
2023/04/08 02:46:59;;;;;;;1999.90;999.90;;;29.00;79.60;;;;;;5034221;28;20041;-72
2023/04/08 02:49:27;;;;;;;1999.90;999.90;;;29.00;78.80;;;;;;5031196;28;20475;-71
2023/04/08 02:51:54;;;;;;;1999.90;999.90;;;28.90;80.10;;;;;;5036592;28;20033;-72
2023/04/08 02:54:21;;;;;;;1999.90;999.90;;;29.00;79.30;;;;;;5042516;28;20025;-72
2023/04/08 02:56:49;;;;;;;1999.90;999.90;;;28.90;80.80;;;;;;5033380;28;20058;-72
2023/04/08 02:59:16;;;;;;;1999.90;999.90;;;29.10;80.60;;;;;;5036837;28;20021;-72
2023/04/08 03:01:44;;;;;;;1999.90;999.90;;;29.30;80.30;;;;;;5031036;28;20542;-70
2023/04/08 03:04:11;;;;;;;1999.90;999.90;;;29.50;81.30;;;;;;5040239;28;20099;-71
2023/04/08 03:06:38;;;;;;;1999.90;999.90;;;29.80;79.70;;;;;;5033532;28;20719;-71
2023/04/08 03:09:06;;;;;;;1999.90;999.90;;;29.10;78.60;;;;;;5033122;28;20040;-70
2023/04/08 03:11:33;;;;;;;1999.90;999.90;;;27.90;79.70;;;;;;5034450;28;20029;-69
2023/04/08 03:14:01;;;;;;;1999.90;999.90;;;27.40;81.00;;;;;;5028066;28;20458;-70
2023/04/08 03:16:28;;;;;;;1999.90;999.90;;;27.40;81.50;;;;;;5029526;28;20037;-70
2023/04/08 03:18:55;;;;;;;1999.90;999.90;;;27.60;81.40;;;;;;5034488;28;20061;-69
2023/04/08 03:21:23;;;;;;;1999.90;999.90;;;27.50;81.10;;;;;;5032116;28;20488;-70
2023/04/08 03:23:50;;;;;;;1999.90;999.90;;;27.00;82.00;;;;;;5038889;28;20049;-73
2023/04/08 03:26:18;;;;;;;1999.90;999.90;;;26.90;83.30;;;;;;5037368;28;20033;-71
2023/04/08 03:28:45;;;;;;;1999.90;999.90;;;26.70;81.40;;;;;;5030136;28;20444;-72
2023/04/08 03:31:12;;;;;;;1999.90;999.90;;;26.20;82.30;;;;;;5032832;28;20025;-71
2023/04/08 03:33:40;;;;;;;1999.90;999.90;;;26.10;82.40;;;;;;5034951;28;20029;-70
2023/04/08 03:36:07;;;;;;;1999.90;999.90;;;26.10;82.90;;;;;;5034997;28;20768;-71
2023/04/08 03:38:34;;;;;;;1999.90;999.90;;;26.00;83.50;;;;;;5031013;28;20392;-72
2023/04/08 03:41:02;;;;;;;1999.90;999.90;;;25.70;83.60;;;;;;5033441;28;20029;-69
2023/04/08 03:43:29;;;;;;;1999.90;999.90;;;25.50;84.70;;;;;;5030185;28;20108;-74
2023/04/08 03:45:57;;;;;;;1999.90;999.90;;;25.20;84.60;;;;;;5031414;28;20029;-71
2023/04/08 03:48:24;;;;;;;1999.90;999.90;;;25.00;84.70;;;;;;5030568;28;20369;-70
2023/04/08 03:50:51;;;;;;;1999.90;999.90;;;24.90;85.60;;;;;;5032725;28;20096;-70
2023/04/08 03:53:19;;;;;;;1999.90;999.90;;;25.00;85.50;;;;;;5027532;28;20581;-74
2023/04/08 03:55:49;;;;;;;1999.90;999.90;;;25.20;85.70;;;;;;5041222;28;20026;-69
2023/04/08 03:58:16;;;;;;;1999.90;999.90;;;25.10;85.20;;;;;;5027977;28;20036;-73
2023/04/08 04:00:44;;;;;;;1999.90;999.90;;;24.80;85.20;;;;;;5037316;28;20041;-76
2023/04/08 04:03:11;;;;;;;1999.90;999.90;;;24.70;87.00;;;;;;5023106;28;20037;-69
2023/04/08 04:05:40;;;;;;;1999.90;999.90;;;24.90;87.00;;;;;;5025696;28;20029;-73
2023/04/08 04:08:08;;;;;;;1999.90;999.90;;;25.10;85.50;;;;;;5027639;28;20033;-71
2023/04/08 04:10:35;;;;;;;1999.90;999.90;;;24.90;85.50;;;;;;5023700;28;20147;-71
2023/04/08 04:13:03;;;;;;;1999.90;999.90;;;24.90;86.00;;;;;;5030307;28;20025;-70
2023/04/08 04:15:30;;;;;;;1999.90;999.90;;;24.80;86.40;;;;;;5029978;28;20017;-72
2023/04/08 04:17:57;;;;;;;1999.90;999.90;;;24.60;86.60;;;;;;5026996;28;20086;-72
2023/04/08 04:20:25;;;;;;;1999.90;999.90;;;24.80;86.10;;;;;;5028785;28;20088;-72
2023/04/08 04:22:52;;;;;;;1999.90;999.90;;;25.00;86.20;;;;;;5050438;28;20068;-72
2023/04/08 04:25:19;;;;;;;1999.90;999.90;;;24.90;86.00;;;;;;5042932;28;20033;-72
2023/04/08 04:27:47;;;;;;;1999.90;999.90;;;24.80;86.10;;;;;;5031339;28;20029;-73
2023/04/08 04:30:14;;;;;;;1999.90;999.90;;;24.80;87.50;;;;;;5039032;28;20370;-72
2023/04/08 04:32:42;;;;;;;1999.90;999.90;;;24.70;87.10;;;;;;5029599;28;20033;-71
2023/04/08 04:35:13;;;;;;;1999.90;999.90;;;24.50;87.00;;;;;;5038326;28;20040;-74
2023/04/08 04:37:40;;;;;;;1999.90;999.90;;;24.40;87.20;;;;;;5037387;28;20038;-70
2023/04/08 04:40:08;;;;;;;1999.90;999.90;;;24.20;88.00;;;;;;5039702;28;20061;-71
2023/04/08 04:42:35;;;;;;;1999.90;999.90;;;24.10;87.20;;;;;;5029870;28;20140;-71
2023/04/08 04:45:03;;;;;;;1999.90;999.90;;;23.90;87.40;;;;;;5038061;28;20037;-75
2023/04/08 04:47:31;;;;;;;1999.90;999.90;;;24.10;88.40;;;;;;5035906;28;20053;-76
2023/04/08 04:49:58;;;;;;;1999.90;999.90;;;24.20;88.40;;;;;;5037375;28;20086;-70
2023/04/08 04:52:26;;;;;;;1999.90;999.90;;;24.40;87.70;;;;;;5031546;28;20030;-69
2023/04/08 04:54:53;;;;;;;1999.90;999.90;;;24.40;87.10;;;;;;5034024;28;20061;-71
2023/04/08 04:57:20;;;;;;;1999.90;999.90;;;24.70;87.90;;;;;;5030340;28;20025;-68
2023/04/08 04:59:47;;;;;;;1999.90;999.90;;;24.80;86.80;;;;;;5040881;28;20512;-73
2023/04/08 05:02:15;;;;;;;1999.90;999.90;;;25.00;85.60;;;;;;5031958;28;20553;-71
2023/04/08 05:04:42;;;;;;;1999.90;999.90;;;25.10;85.80;;;;;;5036563;28;20148;-73
2023/04/08 05:07:09;;;;;;;1999.90;999.90;;;25.30;86.80;;;;;;5029644;28;20025;-73
2023/04/08 05:09:37;;;;;;;1999.90;999.90;;;25.40;86.50;;;;;;5033793;28;20037;-70
2023/04/08 05:12:04;;;;;;;1999.90;999.90;;;25.40;86.70;;;;;;5031475;28;20026;-71
2023/04/08 05:14:32;;;;;;;1999.90;999.90;;;25.40;86.10;;;;;;5030119;28;20369;-71
2023/04/08 05:16:59;;;;;;;1999.90;999.90;;;25.40;85.60;;;;;;5026697;28;20034;-70
2023/04/08 05:19:27;;;;;;;1999.90;999.90;;;25.40;85.80;;;;;;5028115;28;20048;-70
2023/04/08 05:21:54;;;;;;;1999.90;999.90;;;25.40;85.80;;;;;;5025999;28;20407;-69
2023/04/08 05:24:21;;;;;;;1999.90;999.90;;;25.30;86.10;;;;;;5038832;28;20029;-70
2023/04/08 05:26:51;;;;;;;1999.90;999.90;;;25.10;85.20;;;;;;5032582;28;20030;-70
2023/04/08 05:29:20;;;;;;;1999.90;999.90;;;25.00;86.00;;;;;;5032347;28;20476;-70
2023/04/08 05:31:48;;;;;;;1999.90;999.90;;;24.90;85.40;;;;;;5041061;28;20056;-68
2023/04/08 05:34:21;;;;;;;1999.90;999.90;;;24.70;85.90;;;;;;5038132;28;20052;-69
2023/04/08 05:36:52;;;;;;;1999.90;999.90;;;24.70;86.60;;;;;;5037587;28;20043;-70
2023/04/08 05:39:20;;;;;;;1999.90;999.90;;;24.70;86.60;;;;;;5032712;28;20073;-71
2023/04/08 05:41:47;;;;;;;1999.90;999.90;;;24.80;86.30;;;;;;5033100;28;20096;-71
2023/04/08 05:44:14;;;;;;;1999.90;999.90;;;24.90;86.90;;;;;;5035666;28;20056;-71
2023/04/08 05:46:42;;;;;;;1999.90;999.90;;;25.10;86.00;;;;;;5030546;28;20503;-72
2023/04/08 05:49:09;;;;;;;1999.90;999.90;;;25.00;85.90;;;;;;5032536;28;20097;-72
2023/04/08 05:51:38;;;;;;;1999.90;999.90;;;24.80;86.30;;;;;;5036599;28;20025;-68
2023/04/08 05:54:05;;;;;;;1999.90;999.90;;;24.60;86.10;;;;;;5036261;28;20026;-73
2023/04/08 05:56:33;;;;;;;1999.90;999.90;;;24.30;86.00;;;;;;5034752;28;20029;-71
2023/04/08 05:59:01;;;;;;;1999.90;999.90;;;24.00;87.20;;;;;;5036218;28;20387;-74
2023/04/08 06:01:28;;;;;;;1999.90;999.90;;;23.70;86.80;;;;;;5034821;28;20037;-75
2023/04/08 06:03:55;;;;;;;1999.90;999.90;;;23.70;87.60;;;;;;5032778;28;20126;-74
2023/04/08 06:06:24;;;;;;;1999.90;999.90;;;23.80;87.60;;;;;;5036069;28;20082;-73
2023/04/08 06:08:51;;;;;;;1999.90;999.90;;;24.10;87.00;;;;;;5035633;28;20044;-73
2023/04/08 06:11:19;;;;;;;1999.90;999.90;;;24.20;86.90;;;;;;5038231;28;20024;-72
2023/04/08 06:13:46;;;;;;;1999.90;999.90;;;24.30;86.50;;;;;;5032042;28;20369;-73
2023/04/08 06:16:17;;;;;;;1999.90;999.90;;;24.50;86.10;;;;;;5039591;28;20034;-72
2023/04/08 06:18:44;;;;;;;1999.90;999.90;;;24.60;86.30;;;;;;5040414;28;20033;-73
2023/04/08 06:21:12;;;;;;;1999.90;999.90;;;24.60;86.10;;;;;;5037919;28;20589;-73
2023/04/08 06:23:39;;;;;;;1999.90;999.90;;;24.60;84.90;;;;;;5031678;28;20120;-70
2023/04/08 06:26:06;;;;;;;1999.90;999.90;;;24.50;85.70;;;;;;5033838;28;20698;-73
2023/04/08 06:28:34;;;;;;;1999.90;999.90;;;24.50;85.50;;;;;;5035283;28;20037;-74
2023/04/08 06:31:01;;;;;;;1999.90;999.90;;;24.50;87.60;;;;;;5037049;28;20033;-69
2023/04/08 06:33:29;;;;;;;1999.90;999.90;;;24.60;87.00;;;;;;5032751;28;20037;-76
2023/04/08 06:36:03;;;;;;;1999.90;999.90;;;24.60;86.00;;;;;;5037447;28;20049;-74
2023/04/08 06:38:31;;;;;;;1999.90;999.90;;;24.60;85.90;;;;;;5037088;28;20036;-66
2023/04/08 06:41:07;;;;;;;1999.90;999.90;;;24.50;85.60;;;;;;5036355;28;20106;-69
2023/04/08 06:43:36;;;;;;;1999.90;999.90;;;24.40;85.40;;;;;;5028098;28;20041;-68
2023/04/08 06:46:03;;;;;;;1999.90;999.90;;;24.30;86.00;;;;;;5035682;28;20029;-69
2023/04/08 06:48:31;;;;;;;1999.90;999.90;;;24.20;86.90;;;;;;5038925;28;20426;-69
2023/04/08 06:51:00;;;;;;;1999.90;999.90;;;24.10;87.10;;;;;;5032896;28;20111;-69
2023/04/08 06:53:32;;;;;;;1999.90;999.90;;;24.00;87.20;;;;;;5032559;28;20396;-73
2023/04/08 06:56:00;;;;;;;1999.90;999.90;;;23.80;87.30;;;;;;5027452;28;20036;-70
2023/04/08 06:58:28;;;;;;;1999.90;999.90;;;23.70;87.10;;;;;;5032487;28;20033;-71
2023/04/08 07:00:56;;;;;;;1999.90;999.90;;;23.50;88.00;;;;;;5034039;28;20025;-71
2023/04/08 07:03:23;;;;;;;1999.90;999.90;;;23.30;88.30;;;;;;5023664;28;20029;-71
2023/04/08 07:05:51;;;;;;;1999.90;999.90;;;23.10;89.00;;;;;;5029142;28;20048;-76
2023/04/08 07:08:19;;;;;;;1999.90;999.90;;;23.00;89.20;;;;;;5034497;28;20083;-72
2023/04/08 07:10:46;;;;;;;1999.90;999.90;;;22.80;90.10;;;;;;5035315;28;20029;-74
2023/04/08 07:13:13;;;;;;;1999.90;999.90;;;22.70;90.20;;;;;;5044594;28;20522;-69
2023/04/08 07:15:41;;;;;;;1999.90;999.90;;;22.60;90.50;;;;;;5041833;28;20028;-70
2023/04/08 07:18:08;;;;;;;1999.90;999.90;;;22.50;90.60;;;;;;5029656;28;20042;-72
2023/04/08 07:20:37;;;;;;;1999.90;999.90;;;22.20;90.80;;;;;;5034599;28;20380;-74
2023/04/08 07:23:04;;;;;;;1999.90;999.90;;;22.10;91.20;;;;;;5032513;28;20405;-73
2023/04/08 07:25:36;;;;;;;1999.90;999.90;;;21.90;91.10;;;;;;5030570;28;20048;-72
2023/04/08 07:28:03;;;;;;;1999.90;999.90;;;21.80;91.50;;;;;;5027259;28;20068;-69
2023/04/08 07:30:31;;;;;;;1999.90;999.90;;;21.60;91.30;;;;;;5033342;28;20025;-69
2023/04/08 07:32:58;;;;;;;1999.90;999.90;;;21.60;91.60;;;;;;5025629;28;20035;-69
2023/04/08 07:35:26;;;;;;;1999.90;999.90;;;21.50;91.90;;;;;;5031723;28;20043;-69
2023/04/08 07:37:54;;;;;;;1999.90;999.90;;;21.40;91.40;;;;;;5033472;28;20030;-69
2023/04/08 07:40:21;;;;;;;1999.90;999.90;;;21.30;91.40;;;;;;5036479;28;20756;-69
2023/04/08 07:42:49;;;;;;;1999.90;999.90;;;21.30;91.60;;;;;;5032432;28;20041;-69
2023/04/08 07:45:16;;;;;;;1999.90;999.90;;;21.10;91.70;;;;;;5033886;28;20520;-69
2023/04/08 07:47:44;;;;;;;1999.90;999.90;;;21.00;91.80;;;;;;5031366;28;20068;-68
2023/04/08 07:50:12;;;;;;;1999.90;999.90;;;20.90;92.20;;;;;;5037935;28;20014;-68
2023/04/08 07:52:39;;;;;;;1999.90;999.90;;;20.80;92.20;;;;;;5030118;28;20048;-68
2023/04/08 07:55:07;;;;;;;1999.90;999.90;;;20.70;92.30;;;;;;5035235;28;20056;-68
2023/04/08 07:57:35;;;;;;;1999.90;999.90;;;20.60;92.60;;;;;;5035210;28;20033;-68
2023/04/08 08:00:03;;;;;;;1999.90;999.90;;;20.50;92.60;;;;;;5034827;28;20025;-69
2023/04/08 08:02:31;;;;;;;1999.90;999.90;;;20.40;92.70;;;;;;5030462;28;20388;-67
2023/04/08 08:05:00;;;;;;;1999.90;999.90;;;20.30;92.90;;;;;;5029924;28;20561;-68
2023/04/08 08:07:27;;;;;;;1999.90;999.90;;;20.30;92.50;;;;;;5033933;28;20033;-68
2023/04/08 08:09:54;;;;;;;1999.90;999.90;;;20.20;92.70;;;;;;5038093;28;20017;-69
2023/04/08 08:12:22;;;;;;;1999.90;999.90;;;20.10;93.10;;;;;;5021000;28;20434;-70
2023/04/08 08:14:50;;;;;;;1999.90;999.90;;;20.10;93.20;;;;;;5036264;28;20103;-70
2023/04/08 08:17:18;;;;;;;1999.90;999.90;;;20.00;93.10;;;;;;5024900;28;20090;-68
2023/04/08 08:19:45;;;;;;;1999.90;999.90;;;19.90;93.00;;;;;;5029556;28;20025;-68
2023/04/08 08:22:12;;;;;;;1999.90;999.90;;;19.90;93.20;;;;;;5028227;28;20078;-69
2023/04/08 08:24:40;;;;;;;1999.90;999.90;;;19.80;93.00;;;;;;5032416;28;20032;-70
2023/04/08 08:27:09;;;;;;;1999.90;999.90;;;19.80;93.10;;;;;;5024525;28;20677;-69
2023/04/08 08:29:37;;;;;;;1999.90;999.90;;;19.70;93.20;;;;;;5035977;28;20029;-68
2023/04/08 08:32:04;;;;;;;1999.90;999.90;;;19.70;93.10;;;;;;5024186;28;20034;-70
2023/04/08 08:34:32;;;;;;;1999.90;999.90;;;19.70;93.30;;;;;;5030873;28;20120;-70
2023/04/08 08:36:59;;;;;;;1999.90;999.90;;;19.60;93.70;;;;;;5026288;28;20551;-69
2023/04/08 08:39:27;;;;;;;1999.90;999.90;;;19.60;93.30;;;;;;5029446;28;20056;-69
2023/04/08 08:41:55;;;;;;;1999.90;999.90;;;19.60;93.10;;;;;;5036289;28;20781;-68
2023/04/08 08:44:23;;;;;;;1999.90;999.90;;;19.50;93.20;;;;;;5034215;28;20041;-69
2023/04/08 08:46:50;;;;;;;1999.90;999.90;;;19.50;93.10;;;;;;5030818;28;20081;-67
2023/04/08 08:49:18;;;;;;;1999.90;999.90;;;19.40;93.30;;;;;;5036639;28;20091;-71
2023/04/08 08:51:50;;;;;;;1999.90;999.90;;;19.40;93.30;;;;;;5029054;28;20026;-70
2023/04/08 08:54:17;;;;;;;1999.90;999.90;;;19.30;93.40;;;;;;5039108;28;20043;-70
2023/04/08 08:56:44;;;;;;;1999.90;999.90;;;19.30;93.60;;;;;;5033333;28;20030;-70
2023/04/08 08:59:11;;;;;;;1999.90;999.90;;;19.20;93.70;;;;;;5036532;28;20108;-70
2023/04/08 09:01:40;;;;;;;1999.90;999.90;;;19.20;93.60;;;;;;5036462;28;20032;-70
2023/04/08 09:04:07;;;;;;;1999.90;999.90;;;19.10;93.70;;;;;;5031127;28;20130;-70
2023/04/08 09:06:35;;;;;;;1999.90;999.90;;;19.00;94.10;;;;;;5035450;28;20056;-70
2023/04/08 09:09:09;;;;;;;1999.90;999.90;;;18.90;94.40;;;;;;5038834;28;20037;-70
2023/04/08 09:11:45;;;;;;;1999.90;999.90;;;18.80;94.50;;;;;;5031112;28;20033;-68
2023/04/08 09:14:24;;;;;;;;;;;18.80;94.20;;;;;;5033962;28;20032;-70
2023/04/08 09:16:52;;;;;;;1999.90;999.90;;;18.80;94.00;;;;;;5027638;28;19936;-70
2023/04/08 09:19:20;;;;;;;1999.90;999.90;;;18.80;94.00;;;;;;5037583;28;20025;-68
2023/04/08 09:22:06;;;;;;;1999.90;999.90;;;18.70;94.00;;;;;;5028114;28;20033;-68
2023/04/08 09:24:33;;;;;;;;;;;18.70;93.90;;;;;;5039622;28;20041;-69
2023/04/08 09:27:00;;;;;;;1999.90;999.90;;;18.70;94.20;;;;;;5031806;28;19920;-69
2023/04/08 09:29:28;;;;;;;1999.90;999.90;;;18.70;94.20;;;;;;5032865;28;20032;-68
2023/04/08 09:31:57;;;;;;;1999.90;999.90;;;18.80;93.80;;;;;;5029058;28;20025;-68
2023/04/08 09:34:26;;;;;;;1999.90;999.90;;;18.80;93.90;;;;;;5036123;28;20018;-69
2023/04/08 09:36:54;;;;;;;1999.90;999.90;;;18.80;93.80;;;;;;5030781;28;20107;-70
2023/04/08 09:39:22;;;;;;;1999.90;999.90;;;18.80;93.60;;;;;;5036680;28;20030;-70
2023/04/08 09:41:50;;;;;;;1999.90;999.90;;;18.80;93.60;;;;;;5033199;28;20412;-70
2023/04/08 09:44:20;;;;;;;1999.90;999.90;;;18.80;93.50;;;;;;5035979;28;20045;-70
2023/04/08 09:46:51;;;;;;;1999.90;999.90;;;18.80;93.50;;;;;;5032063;28;20081;-69
2023/04/08 09:49:30;;;;;;;1999.90;999.90;;;18.80;93.50;;;;;;5039831;28;20038;-68
2023/04/08 09:52:32;;;;;;;1999.90;999.90;;;18.80;93.40;;;;;;5030681;28;20492;-68
2023/04/08 09:55:04;;;;;;;1999.90;999.90;;;18.80;93.30;;;;;;5032866;28;20029;-71
2023/04/08 09:58:01;;;;;;;1999.90;999.90;;;18.80;93.30;;;;;;5030806;28;20737;-68
2023/04/08 10:00:45;;;;;;;1999.90;999.90;;;18.80;93.50;;;;;;5025862;28;20971;-68
2023/04/08 10:03:39;;;;;;;1999.90;999.90;;;18.70;93.20;;;;;;5029009;28;20135;-69
2023/04/08 10:06:10;;;;;;;1999.90;999.90;;;18.70;93.30;;;;;;5028386;28;20029;-69
2023/04/08 10:08:38;;;;;;;1999.90;999.90;;;18.70;93.50;;;;;;5034901;28;20037;-70
2023/04/08 10:11:06;;;;;;;1999.90;999.90;;;18.60;93.10;;;;;;5033919;28;20029;-71
2023/04/08 10:13:34;;;;;;;1999.90;999.90;;;18.60;93.40;;;;;;5027862;28;20025;-71
2023/04/08 10:16:24;;;;;;;1999.90;999.90;;;18.60;93.10;;;;;;5028775;28;20497;-70
2023/04/08 10:18:55;;;;;;;1999.90;999.90;;;18.60;93.00;;;;;;5027908;28;20043;-70
2023/04/08 10:21:38;;;;;;;1999.90;999.90;;;18.60;93.20;;;;;;5024929;28;20025;-70
2023/04/08 10:24:12;;;;;;;1999.90;999.90;;;18.50;93.10;;;;;;5030367;28;20120;-69
2023/04/08 10:26:41;;;;;;;1999.90;999.90;;;18.50;93.30;;;;;;5027028;28;20105;-70
2023/04/08 10:29:30;;;;;;;1999.90;999.90;;;18.50;93.30;;;;;;5031375;28;20033;-70
2023/04/08 10:31:58;;;;;;;1999.90;999.90;;;18.50;93.40;;;;;;5037782;28;20025;-72
2023/04/08 10:34:26;;;;;;;1999.90;999.90;;;18.40;93.40;;;;;;5033226;28;20462;-71
2023/04/08 10:36:57;;;;;;;1999.90;999.90;;;18.30;93.30;;;;;;5033073;28;20033;-70
2023/04/08 10:39:26;;;;;;;1999.90;999.90;;;18.30;93.60;;;;;;5030655;28;20089;-71
2023/04/08 10:41:53;;;;;;;1999.90;999.90;;;18.30;93.60;;;;;;5036817;28;20119;-71
2023/04/08 10:44:23;;;;;;;1999.90;999.90;;;18.20;93.80;;;;;;5042078;28;20036;-70
2023/04/08 10:46:51;;;;;;;1999.90;999.90;;;18.10;94.00;;;;;;5034624;28;20041;-70
2023/04/08 10:49:20;;;;;;;1999.90;999.90;;;18.00;94.00;;;;;;5037291;28;20029;-71
2023/04/08 10:51:48;;;;;;;1999.90;999.90;;;18.00;93.90;;;;;;5031934;28;20282;-70
2023/04/08 10:54:17;;;;;;;1999.90;999.90;;;17.90;94.00;;;;;;5040082;28;20810;-70
2023/04/08 10:56:49;;;;;;;1999.90;999.90;;;17.90;93.80;;;;;;5033336;28;20120;-73
2023/04/08 10:59:31;;;;;;;1999.90;999.90;;;17.90;93.70;;;;;;5032681;28;20029;-72
2023/04/08 11:02:00;;;;;;;1999.90;999.90;;;17.90;93.60;;;;;;5028755;28;20037;-73
2023/04/08 11:04:27;;;;;;;1999.90;999.90;;;17.90;93.50;;;;;;5034912;28;20044;-70
2023/04/08 11:06:54;;;;;;;1999.90;999.90;;;17.90;93.60;;;;;;5037680;28;20057;-70
2023/04/08 11:09:22;;;;;;;1999.90;999.90;;;17.80;93.50;;;;;;5037452;28;20039;-71
2023/04/08 11:11:49;;;;;;;1999.90;999.90;;;17.80;93.40;;;;;;5034896;28;20032;-70
2023/04/08 11:14:20;;;;;;;1999.90;999.90;;;17.80;93.10;;;;;;5034201;28;20026;-70
2023/04/08 11:16:48;;;;;;;1999.90;999.90;;;17.90;93.10;;;;;;5029955;28;20033;-70
2023/04/08 11:19:15;;;;;;;1999.90;999.90;;;17.90;93.00;;;;;;5038400;28;20096;-69
2023/04/08 11:21:43;;;;;;;1999.90;999.90;;;18.00;92.70;;;;;;5028274;28;20741;-70
2023/04/08 11:24:12;;;;;;;1999.90;999.90;;;18.00;92.80;;;;;;5037315;28;20044;-72
2023/04/08 11:26:40;;;;;;;1999.90;999.90;;;18.00;92.90;;;;;;5034931;28;20035;-69
2023/04/08 11:29:15;;;;;;;1999.90;999.90;;;17.90;93.00;;;;;;5034976;28;20590;-70
2023/04/08 11:31:44;;;;;;;1999.90;999.90;;;17.90;92.80;;;;;;5031805;28;20521;-70
2023/04/08 11:34:11;;;;;;;1999.90;999.90;;;17.90;92.90;;;;;;5038331;28;20029;-70
2023/04/08 11:36:41;;;;;;;1999.90;999.90;;;17.80;92.90;;;;;;5030049;28;20045;-70
2023/04/08 11:39:10;;;;;;;1999.90;999.90;;;17.80;93.00;;;;;;5036746;28;20037;-70
2023/04/08 11:41:39;;;;;;;1999.90;999.90;;;17.80;93.10;;;;;;5036361;28;20048;-70
2023/04/08 11:44:07;;;;;;;1999.90;999.90;;;17.60;93.20;;;;;;5034501;28;20103;-69
2023/04/08 11:46:35;;;;;;;1999.90;999.90;;;17.60;93.10;;;;;;5036801;28;20153;-70
2023/04/08 11:49:08;;;;;;;1999.90;999.90;;;17.60;93.10;;;;;;5036492;28;20083;-70
2023/04/08 11:51:57;;;;;;;1999.90;999.90;;;17.60;92.90;;;;;;5022127;28;20477;-69
2023/04/08 11:54:34;;;;;;;1999.90;999.90;;;17.60;92.90;;;;;;5026032;28;20484;-69
2023/04/08 11:57:01;;;;;;;1999.90;999.90;;;17.50;92.90;;;;;;5026051;28;20045;-69
2023/04/08 11:59:29;;;;;;;1999.90;999.90;;;17.40;93.10;;;;;;5028555;28;20041;-69
2023/04/08 12:01:56;;;;;;;1999.90;999.90;;;17.30;93.10;;;;;;5028500;28;20112;-73
2023/04/08 12:04:24;;;;;;;1999.90;999.90;;;17.30;93.20;;;;;;5034597;28;20069;-70
2023/04/08 12:06:52;;;;;;;1999.90;999.90;;;17.20;93.30;;;;;;5024572;28;20021;-71
2023/04/08 12:09:19;;;;;;;1999.90;999.90;;;17.10;93.40;;;;;;5033162;28;20033;-71
2023/04/08 12:11:46;;;;;;;1999.90;999.90;;;17.00;93.70;;;;;;5032412;28;20037;-71